sensor_id;sensor_type;location;lat;lon;timestamp;pressure;altitude;pressure_sealevel;temperature;humidity
63715;BME280;49858;48.956;9.076;2023-12-20T00:01:21;98787.59;;;11.32;100.00
63715;BME280;49858;48.956;9.076;2023-12-20T00:03:50;98792.81;;;11.02;100.00
63715;BME280;49858;48.956;9.076;2023-12-20T00:06:18;98795.28;;;10.43;100.00
63715;BME280;49858;48.956;9.076;2023-12-20T00:08:45;98796.78;;;10.13;100.00
63715;BME280;49858;48.956;9.076;2023-12-20T00:11:14;98784.84;;;10.65;100.00
63715;BME280;49858;48.956;9.076;2023-12-20T00:13:42;98779.44;;;11.19;100.00
63715;BME280;49858;48.956;9.076;2023-12-20T00:16:12;98767.63;;;11.54;100.00
63715;BME280;49858;48.956;9.076;2023-12-20T00:18:40;98764.59;;;11.78;100.00
63715;BME280;49858;48.956;9.076;2023-12-20T00:21:08;98769.72;;;11.96;100.00
63715;BME280;49858;48.956;9.076;2023-12-20T00:23:36;98768.91;;;11.95;100.00
63715;BME280;49858;48.956;9.076;2023-12-20T00:26:04;98761.22;;;12.05;100.00
63715;BME280;49858;48.956;9.076;2023-12-20T00:28:31;98756.81;;;12.00;100.00
63715;BME280;49858;48.956;9.076;2023-12-20T00:30:59;98751.44;;;10.98;100.00
63715;BME280;49858;48.956;9.076;2023-12-20T00:33:28;98758.09;;;11.32;100.00
63715;BME280;49858;48.956;9.076;2023-12-20T00:35:56;98756.53;;;11.50;100.00
63715;BME280;49858;48.956;9.076;2023-12-20T00:38:24;98748.84;;;11.60;100.00
63715;BME280;49858;48.956;9.076;2023-12-20T00:40:52;98749.97;;;11.20;100.00
63715;BME280;49858;48.956;9.076;2023-12-20T00:43:20;98754.66;;;10.84;100.00
63715;BME280;49858;48.956;9.076;2023-12-20T00:45:48;98748.53;;;11.26;100.00
63715;BME280;49858;48.956;9.076;2023-12-20T00:48:16;98753.59;;;10.57;100.00
63715;BME280;49858;48.956;9.076;2023-12-20T00:50:45;98754.38;;;10.42;100.00
63715;BME280;49858;48.956;9.076;2023-12-20T00:53:13;98756.75;;;10.28;100.00
63715;BME280;49858;48.956;9.076;2023-12-20T00:55:41;98764.63;;;9.85;100.00
63715;BME280;49858;48.956;9.076;2023-12-20T00:58:10;98757.75;;;10.51;100.00
63715;BME280;49858;48.956;9.076;2023-12-20T01:00:38;98760.09;;;10.21;100.00
63715;BME280;49858;48.956;9.076;2023-12-20T01:03:10;98770.91;;;9.86;100.00
63715;BME280;49858;48.956;9.076;2023-12-20T01:05:38;98771.34;;;8.70;100.00
63715;BME280;49858;48.956;9.076;2023-12-20T01:08:07;98771.81;;;9.50;100.00
63715;BME280;49858;48.956;9.076;2023-12-20T01:10:35;98766.28;;;8.48;100.00
63715;BME280;49858;48.956;9.076;2023-12-20T01:13:03;98786.53;;;8.80;100.00
63715;BME280;49858;48.956;9.076;2023-12-20T01:15:31;98784.19;;;9.43;100.00
63715;BME280;49858;48.956;9.076;2023-12-20T01:17:59;98784.03;;;10.20;100.00
63715;BME280;49858;48.956;9.076;2023-12-20T01:20:27;98782.31;;;10.28;100.00
63715;BME280;49858;48.956;9.076;2023-12-20T01:22:54;98774.34;;;10.55;100.00
63715;BME280;49858;48.956;9.076;2023-12-20T01:25:24;98775.72;;;9.89;100.00
63715;BME280;49858;48.956;9.076;2023-12-20T01:27:51;98776.00;;;9.19;100.00
63715;BME280;49858;48.956;9.076;2023-12-20T01:30:19;98786.41;;;8.77;100.00
63715;BME280;49858;48.956;9.076;2023-12-20T01:32:47;98785.94;;;8.75;100.00
63715;BME280;49858;48.956;9.076;2023-12-20T01:35:15;98795.44;;;8.19;100.00
63715;BME280;49858;48.956;9.076;2023-12-20T01:37:43;98802.38;;;8.17;100.00
63715;BME280;49858;48.956;9.076;2023-12-20T01:40:11;98804.03;;;7.76;100.00
63715;BME280;49858;48.956;9.076;2023-12-20T01:42:41;98805.47;;;7.94;100.00
63715;BME280;49858;48.956;9.076;2023-12-20T01:45:09;98807.91;;;7.96;100.00
63715;BME280;49858;48.956;9.076;2023-12-20T01:47:37;98802.69;;;7.61;100.00
63715;BME280;49858;48.956;9.076;2023-12-20T01:50:07;98797.97;;;7.71;100.00
63715;BME280;49858;48.956;9.076;2023-12-20T01:52:36;98815.38;;;7.66;100.00
63715;BME280;49858;48.956;9.076;2023-12-20T01:55:05;98819.41;;;7.68;100.00
63715;BME280;49858;48.956;9.076;2023-12-20T01:57:41;98817.81;;;7.67;100.00
63715;BME280;49858;48.956;9.076;2023-12-20T02:00:11;98807.19;;;7.45;100.00
63715;BME280;49858;48.956;9.076;2023-12-20T02:02:41;98814.59;;;7.65;100.00
63715;BME280;49858;48.956;9.076;2023-12-20T02:05:09;98808.44;;;7.48;100.00
63715;BME280;49858;48.956;9.076;2023-12-20T02:07:37;98814.78;;;7.60;100.00
63715;BME280;49858;48.956;9.076;2023-12-20T02:10:06;98813.91;;;7.48;100.00
63715;BME280;49858;48.956;9.076;2023-12-20T02:12:34;98814.00;;;7.60;100.00
63715;BME280;49858;48.956;9.076;2023-12-20T02:15:04;98812.84;;;7.61;100.00
63715;BME280;49858;48.956;9.076;2023-12-20T02:17:32;98822.69;;;7.11;100.00
63715;BME280;49858;48.956;9.076;2023-12-20T02:20:01;98820.22;;;7.48;100.00
63715;BME280;49858;48.956;9.076;2023-12-20T02:22:31;98822.09;;;7.77;100.00
63715;BME280;49858;48.956;9.076;2023-12-20T02:24:58;98823.16;;;7.64;100.00
63715;BME280;49858;48.956;9.076;2023-12-20T02:27:27;98817.09;;;7.29;100.00
63715;BME280;49858;48.956;9.076;2023-12-20T02:29:56;98816.44;;;7.32;100.00
63715;BME280;49858;48.956;9.076;2023-12-20T02:32:24;98809.56;;;7.47;100.00
63715;BME280;49858;48.956;9.076;2023-12-20T02:34:54;98810.97;;;7.32;100.00
63715;BME280;49858;48.956;9.076;2023-12-20T02:37:23;98816.66;;;7.48;100.00
63715;BME280;49858;48.956;9.076;2023-12-20T02:39:52;98801.78;;;7.78;100.00
63715;BME280;49858;48.956;9.076;2023-12-20T02:42:20;98816.72;;;7.39;100.00
63715;BME280;49858;48.956;9.076;2023-12-20T02:44:48;98806.50;;;6.98;100.00
63715;BME280;49858;48.956;9.076;2023-12-20T02:47:16;98806.19;;;7.50;100.00
63715;BME280;49858;48.956;9.076;2023-12-20T02:49:42;98807.44;;;7.52;100.00
63715;BME280;49858;48.956;9.076;2023-12-20T02:52:11;98804.56;;;7.28;100.00
63715;BME280;49858;48.956;9.076;2023-12-20T02:54:39;98807.69;;;7.80;100.00
63715;BME280;49858;48.956;9.076;2023-12-20T02:57:08;98806.97;;;7.50;100.00
63715;BME280;49858;48.956;9.076;2023-12-20T02:59:36;98801.31;;;7.55;100.00
63715;BME280;49858;48.956;9.076;2023-12-20T03:02:03;98807.03;;;7.21;100.00
63715;BME280;49858;48.956;9.076;2023-12-20T03:04:31;98811.81;;;7.24;100.00
63715;BME280;49858;48.956;9.076;2023-12-20T03:06:59;98815.00;;;7.55;100.00
63715;BME280;49858;48.956;9.076;2023-12-20T03:09:27;98811.22;;;7.18;100.00
63715;BME280;49858;48.956;9.076;2023-12-20T03:12:04;98818.28;;;7.19;100.00
63715;BME280;49858;48.956;9.076;2023-12-20T03:14:33;98805.41;;;6.90;100.00
63715;BME280;49858;48.956;9.076;2023-12-20T03:17:01;98813.22;;;7.00;100.00
63715;BME280;49858;48.956;9.076;2023-12-20T03:19:29;98822.25;;;7.30;100.00
63715;BME280;49858;48.956;9.076;2023-12-20T03:21:57;98819.47;;;7.09;100.00
63715;BME280;49858;48.956;9.076;2023-12-20T03:24:27;98822.31;;;6.92;100.00
63715;BME280;49858;48.956;9.076;2023-12-20T03:26:55;98813.50;;;7.37;100.00
63715;BME280;49858;48.956;9.076;2023-12-20T03:29:23;98828.38;;;7.27;100.00
63715;BME280;49858;48.956;9.076;2023-12-20T03:31:52;98821.56;;;7.33;100.00
63715;BME280;49858;48.956;9.076;2023-12-20T03:34:20;98823.56;;;7.24;100.00
63715;BME280;49858;48.956;9.076;2023-12-20T03:36:51;98824.28;;;7.12;100.00
63715;BME280;49858;48.956;9.076;2023-12-20T03:39:19;98821.06;;;6.72;100.00
63715;BME280;49858;48.956;9.076;2023-12-20T03:41:46;98826.13;;;7.29;100.00
63715;BME280;49858;48.956;9.076;2023-12-20T03:44:14;98824.78;;;6.76;100.00
63715;BME280;49858;48.956;9.076;2023-12-20T03:46:42;98818.09;;;6.95;100.00
63715;BME280;49858;48.956;9.076;2023-12-20T03:49:13;98817.28;;;6.94;100.00
63715;BME280;49858;48.956;9.076;2023-12-20T03:51:41;98830.59;;;7.04;100.00
63715;BME280;49858;48.956;9.076;2023-12-20T03:54:09;98845.44;;;6.95;100.00
63715;BME280;49858;48.956;9.076;2023-12-20T03:56:37;98843.19;;;6.97;100.00
63715;BME280;49858;48.956;9.076;2023-12-20T03:59:05;98843.47;;;7.04;100.00
63715;BME280;49858;48.956;9.076;2023-12-20T04:01:33;98824.13;;;7.09;100.00
63715;BME280;49858;48.956;9.076;2023-12-20T04:04:01;98825.09;;;7.13;100.00
63715;BME280;49858;48.956;9.076;2023-12-20T04:06:30;98811.25;;;6.80;100.00
63715;BME280;49858;48.956;9.076;2023-12-20T04:08:58;98808.47;;;7.18;100.00
63715;BME280;49858;48.956;9.076;2023-12-20T04:11:26;98817.78;;;7.47;100.00
63715;BME280;49858;48.956;9.076;2023-12-20T04:13:53;98825.69;;;6.89;100.00
63715;BME280;49858;48.956;9.076;2023-12-20T04:16:21;98822.13;;;6.97;100.00
63715;BME280;49858;48.956;9.076;2023-12-20T04:18:49;98824.72;;;6.85;100.00
63715;BME280;49858;48.956;9.076;2023-12-20T04:21:17;98835.03;;;7.17;100.00
63715;BME280;49858;48.956;9.076;2023-12-20T04:23:47;98826.91;;;7.00;100.00
63715;BME280;49858;48.956;9.076;2023-12-20T04:26:14;98849.47;;;7.27;100.00
63715;BME280;49858;48.956;9.076;2023-12-20T04:28:42;98854.47;;;6.86;100.00
63715;BME280;49858;48.956;9.076;2023-12-20T04:31:12;98859.97;;;7.46;100.00
63715;BME280;49858;48.956;9.076;2023-12-20T04:33:40;98863.19;;;7.48;100.00
63715;BME280;49858;48.956;9.076;2023-12-20T04:36:08;98857.53;;;7.23;100.00
63715;BME280;49858;48.956;9.076;2023-12-20T04:38:36;98854.78;;;7.53;100.00
63715;BME280;49858;48.956;9.076;2023-12-20T04:41:05;98853.47;;;7.00;100.00
63715;BME280;49858;48.956;9.076;2023-12-20T04:43:33;98844.88;;;7.10;100.00
63715;BME280;49858;48.956;9.076;2023-12-20T04:46:01;98855.72;;;6.98;100.00
63715;BME280;49858;48.956;9.076;2023-12-20T04:48:29;98863.59;;;6.99;100.00
63715;BME280;49858;48.956;9.076;2023-12-20T04:50:57;98873.00;;;6.81;100.00
63715;BME280;49858;48.956;9.076;2023-12-20T04:53:24;98859.47;;;7.23;100.00
63715;BME280;49858;48.956;9.076;2023-12-20T04:55:52;98863.69;;;7.20;100.00
63715;BME280;49858;48.956;9.076;2023-12-20T04:58:21;98874.09;;;6.88;100.00
63715;BME280;49858;48.956;9.076;2023-12-20T05:00:49;98864.97;;;7.14;100.00
63715;BME280;49858;48.956;9.076;2023-12-20T05:03:17;98867.25;;;7.12;100.00
63715;BME280;49858;48.956;9.076;2023-12-20T05:05:45;98871.97;;;7.03;100.00
63715;BME280;49858;48.956;9.076;2023-12-20T05:08:13;98890.63;;;7.01;100.00
63715;BME280;49858;48.956;9.076;2023-12-20T05:10:41;98886.91;;;7.05;100.00
63715;BME280;49858;48.956;9.076;2023-12-20T05:13:09;98881.84;;;7.25;100.00
63715;BME280;49858;48.956;9.076;2023-12-20T05:15:38;98884.97;;;7.65;100.00
63715;BME280;49858;48.956;9.076;2023-12-20T05:18:06;98909.31;;;6.90;100.00
63715;BME280;49858;48.956;9.076;2023-12-20T05:20:34;98901.88;;;7.37;100.00
63715;BME280;49858;48.956;9.076;2023-12-20T05:23:02;98910.31;;;7.24;100.00
63715;BME280;49858;48.956;9.076;2023-12-20T05:25:30;98906.22;;;7.38;100.00
63715;BME280;49858;48.956;9.076;2023-12-20T05:27:58;98913.19;;;7.57;100.00
63715;BME280;49858;48.956;9.076;2023-12-20T05:30:26;98920.16;;;7.25;100.00
63715;BME280;49858;48.956;9.076;2023-12-20T05:32:55;98921.47;;;7.99;100.00
63715;BME280;49858;48.956;9.076;2023-12-20T05:35:23;98912.75;;;7.25;100.00
63715;BME280;49858;48.956;9.076;2023-12-20T05:37:51;98922.78;;;7.04;100.00
63715;BME280;49858;48.956;9.076;2023-12-20T05:40:19;98918.25;;;7.16;100.00
63715;BME280;49858;48.956;9.076;2023-12-20T05:42:47;98924.03;;;7.15;100.00
63715;BME280;49858;48.956;9.076;2023-12-20T05:45:15;98938.22;;;7.08;100.00
63715;BME280;49858;48.956;9.076;2023-12-20T05:47:43;98936.28;;;7.47;100.00
63715;BME280;49858;48.956;9.076;2023-12-20T05:50:12;98942.19;;;7.58;100.00
63715;BME280;49858;48.956;9.076;2023-12-20T05:52:40;98935.19;;;7.69;100.00
63715;BME280;49858;48.956;9.076;2023-12-20T05:55:08;98953.31;;;7.53;100.00
63715;BME280;49858;48.956;9.076;2023-12-20T05:57:36;98963.84;;;7.42;100.00
63715;BME280;49858;48.956;9.076;2023-12-20T06:00:04;98957.28;;;7.34;100.00
63715;BME280;49858;48.956;9.076;2023-12-20T06:02:37;98960.31;;;6.95;100.00
63715;BME280;49858;48.956;9.076;2023-12-20T06:05:06;98961.13;;;7.33;100.00
63715;BME280;49858;48.956;9.076;2023-12-20T06:07:35;98966.78;;;7.66;100.00
63715;BME280;49858;48.956;9.076;2023-12-20T06:10:04;98971.91;;;7.77;100.00
63715;BME280;49858;48.956;9.076;2023-12-20T06:12:32;98965.38;;;7.22;100.00
63715;BME280;49858;48.956;9.076;2023-12-20T06:15:03;98976.69;;;7.12;100.00
63715;BME280;49858;48.956;9.076;2023-12-20T06:17:32;98977.50;;;7.51;100.00
63715;BME280;49858;48.956;9.076;2023-12-20T06:20:01;98981.28;;;7.29;100.00
63715;BME280;49858;48.956;9.076;2023-12-20T06:22:35;98983.97;;;7.37;100.00
63715;BME280;49858;48.956;9.076;2023-12-20T06:25:04;98991.16;;;7.12;100.00
63715;BME280;49858;48.956;9.076;2023-12-20T06:27:33;98989.03;;;7.18;100.00
63715;BME280;49858;48.956;9.076;2023-12-20T06:30:01;98978.66;;;7.41;100.00
63715;BME280;49858;48.956;9.076;2023-12-20T06:32:29;98980.69;;;7.53;100.00
63715;BME280;49858;48.956;9.076;2023-12-20T06:34:57;98981.56;;;7.74;100.00
63715;BME280;49858;48.956;9.076;2023-12-20T06:37:25;98980.06;;;7.47;100.00
63715;BME280;49858;48.956;9.076;2023-12-20T06:39:54;98994.50;;;7.65;100.00
63715;BME280;49858;48.956;9.076;2023-12-20T06:42:23;98984.38;;;7.57;100.00
63715;BME280;49858;48.956;9.076;2023-12-20T06:44:51;98979.06;;;7.60;100.00
63715;BME280;49858;48.956;9.076;2023-12-20T06:47:19;98981.09;;;7.72;100.00
63715;BME280;49858;48.956;9.076;2023-12-20T06:49:46;98992.22;;;7.29;100.00
63715;BME280;49858;48.956;9.076;2023-12-20T06:52:15;98999.38;;;7.51;100.00
63715;BME280;49858;48.956;9.076;2023-12-20T06:54:42;98991.56;;;7.32;100.00
63715;BME280;49858;48.956;9.076;2023-12-20T06:57:12;98999.81;;;7.61;100.00
63715;BME280;49858;48.956;9.076;2023-12-20T06:59:40;99001.72;;;7.31;100.00
63715;BME280;49858;48.956;9.076;2023-12-20T07:02:08;99008.22;;;7.09;100.00
63715;BME280;49858;48.956;9.076;2023-12-20T07:04:41;99018.03;;;7.57;100.00
63715;BME280;49858;48.956;9.076;2023-12-20T07:07:09;99018.00;;;7.66;100.00
63715;BME280;49858;48.956;9.076;2023-12-20T07:09:37;99015.53;;;7.43;100.00
63715;BME280;49858;48.956;9.076;2023-12-20T07:12:05;99022.69;;;7.57;100.00
63715;BME280;49858;48.956;9.076;2023-12-20T07:14:35;99035.50;;;7.44;100.00
63715;BME280;49858;48.956;9.076;2023-12-20T07:17:03;99045.38;;;7.66;100.00
63715;BME280;49858;48.956;9.076;2023-12-20T07:19:30;99039.47;;;7.55;100.00
63715;BME280;49858;48.956;9.076;2023-12-20T07:21:59;99043.28;;;7.72;100.00
63715;BME280;49858;48.956;9.076;2023-12-20T07:24:27;99039.81;;;7.45;100.00
63715;BME280;49858;48.956;9.076;2023-12-20T07:26:55;99040.44;;;7.51;100.00
63715;BME280;49858;48.956;9.076;2023-12-20T07:29:22;99035.81;;;7.34;100.00
63715;BME280;49858;48.956;9.076;2023-12-20T07:31:52;99038.16;;;7.06;100.00
63715;BME280;49858;48.956;9.076;2023-12-20T07:34:20;99048.50;;;7.47;100.00
63715;BME280;49858;48.956;9.076;2023-12-20T07:36:50;99053.84;;;7.43;100.00
63715;BME280;49858;48.956;9.076;2023-12-20T07:39:20;99060.25;;;7.48;100.00
63715;BME280;49858;48.956;9.076;2023-12-20T07:41:48;99051.69;;;7.02;100.00
63715;BME280;49858;48.956;9.076;2023-12-20T07:44:16;99041.72;;;6.80;100.00
63715;BME280;49858;48.956;9.076;2023-12-20T07:46:44;99050.72;;;6.72;100.00
63715;BME280;49858;48.956;9.076;2023-12-20T07:49:13;99042.97;;;7.09;100.00
63715;BME280;49858;48.956;9.076;2023-12-20T07:51:41;99052.66;;;6.54;100.00
63715;BME280;49858;48.956;9.076;2023-12-20T07:54:09;99052.78;;;7.10;100.00
63715;BME280;49858;48.956;9.076;2023-12-20T07:56:37;99057.16;;;6.85;100.00
63715;BME280;49858;48.956;9.076;2023-12-20T07:59:08;99054.91;;;6.78;100.00
63715;BME280;49858;48.956;9.076;2023-12-20T08:01:51;99062.78;;;6.97;100.00
63715;BME280;49858;48.956;9.076;2023-12-20T08:04:20;99064.38;;;6.72;100.00
63715;BME280;49858;48.956;9.076;2023-12-20T08:06:50;99054.41;;;7.11;100.00
63715;BME280;49858;48.956;9.076;2023-12-20T08:09:21;99053.44;;;7.07;100.00
63715;BME280;49858;48.956;9.076;2023-12-20T08:11:49;99050.63;;;7.41;100.00
63715;BME280;49858;48.956;9.076;2023-12-20T08:14:17;99050.41;;;6.82;100.00
63715;BME280;49858;48.956;9.076;2023-12-20T08:16:45;99051.31;;;7.30;100.00
63715;BME280;49858;48.956;9.076;2023-12-20T08:19:13;99056.00;;;7.21;100.00
63715;BME280;49858;48.956;9.076;2023-12-20T08:21:42;99060.50;;;7.72;100.00
63715;BME280;49858;48.956;9.076;2023-12-20T08:24:10;99059.63;;;7.42;100.00
63715;BME280;49858;48.956;9.076;2023-12-20T08:26:38;99052.53;;;7.50;100.00
63715;BME280;49858;48.956;9.076;2023-12-20T08:29:06;99045.38;;;7.66;100.00
63715;BME280;49858;48.956;9.076;2023-12-20T08:31:34;99062.88;;;8.12;100.00
63715;BME280;49858;48.956;9.076;2023-12-20T08:34:02;99052.06;;;7.86;100.00
63715;BME280;49858;48.956;9.076;2023-12-20T08:36:34;99063.13;;;7.98;100.00
63715;BME280;49858;48.956;9.076;2023-12-20T08:39:03;99071.19;;;7.48;100.00
63715;BME280;49858;48.956;9.076;2023-12-20T08:41:35;99072.59;;;7.07;100.00
63715;BME280;49858;48.956;9.076;2023-12-20T08:44:04;99062.88;;;7.35;100.00
63715;BME280;49858;48.956;9.076;2023-12-20T08:46:32;99072.41;;;7.29;100.00
63715;BME280;49858;48.956;9.076;2023-12-20T08:49:00;99079.97;;;7.15;100.00
63715;BME280;49858;48.956;9.076;2023-12-20T08:51:28;99083.50;;;7.24;100.00
63715;BME280;49858;48.956;9.076;2023-12-20T08:53:56;99083.31;;;7.38;100.00
63715;BME280;49858;48.956;9.076;2023-12-20T08:56:25;99089.47;;;7.17;100.00
63715;BME280;49858;48.956;9.076;2023-12-20T08:58:53;99091.84;;;7.92;100.00
63715;BME280;49858;48.956;9.076;2023-12-20T09:01:24;99081.84;;;7.49;100.00
63715;BME280;49858;48.956;9.076;2023-12-20T09:03:53;99080.28;;;7.31;100.00
63715;BME280;49858;48.956;9.076;2023-12-20T09:06:25;99069.56;;;7.64;100.00
63715;BME280;49858;48.956;9.076;2023-12-20T09:08:53;99068.38;;;7.09;100.00
63715;BME280;49858;48.956;9.076;2023-12-20T09:11:21;99072.63;;;7.62;100.00
63715;BME280;49858;48.956;9.076;2023-12-20T09:13:51;99071.28;;;7.22;100.00
63715;BME280;49858;48.956;9.076;2023-12-20T09:16:18;99078.06;;;7.15;100.00
63715;BME280;49858;48.956;9.076;2023-12-20T09:18:50;99056.44;;;7.31;100.00
63715;BME280;49858;48.956;9.076;2023-12-20T09:21:18;99065.63;;;7.35;100.00
63715;BME280;49858;48.956;9.076;2023-12-20T09:23:46;99058.97;;;7.92;100.00
63715;BME280;49858;48.956;9.076;2023-12-20T09:26:14;99050.13;;;7.86;100.00
63715;BME280;49858;48.956;9.076;2023-12-20T09:28:42;99051.00;;;7.99;100.00
63715;BME280;49858;48.956;9.076;2023-12-20T09:31:11;99046.50;;;7.65;100.00
63715;BME280;49858;48.956;9.076;2023-12-20T09:33:39;99058.06;;;8.09;100.00
63715;BME280;49858;48.956;9.076;2023-12-20T09:36:07;99050.47;;;7.76;100.00
63715;BME280;49858;48.956;9.076;2023-12-20T09:38:35;99052.22;;;8.49;100.00
63715;BME280;49858;48.956;9.076;2023-12-20T09:41:03;99045.53;;;8.29;100.00
63715;BME280;49858;48.956;9.076;2023-12-20T09:43:35;99056.63;;;8.32;100.00
63715;BME280;49858;48.956;9.076;2023-12-20T09:46:06;99058.06;;;8.09;100.00
63715;BME280;49858;48.956;9.076;2023-12-20T09:48:36;99060.16;;;8.41;100.00
63715;BME280;49858;48.956;9.076;2023-12-20T09:51:04;99067.53;;;8.20;100.00
63715;BME280;49858;48.956;9.076;2023-12-20T09:53:33;99083.81;;;7.87;100.00
63715;BME280;49858;48.956;9.076;2023-12-20T09:56:05;99057.56;;;7.39;100.00
63715;BME280;49858;48.956;9.076;2023-12-20T09:58:36;99077.47;;;7.95;100.00
63715;BME280;49858;48.956;9.076;2023-12-20T10:01:05;99056.09;;;8.48;100.00
63715;BME280;49858;48.956;9.076;2023-12-20T10:03:39;99047.06;;;7.88;100.00
63715;BME280;49858;48.956;9.076;2023-12-20T10:06:09;99061.09;;;8.16;100.00
63715;BME280;49858;48.956;9.076;2023-12-20T10:08:38;99061.78;;;8.63;100.00
63715;BME280;49858;48.956;9.076;2023-12-20T10:11:06;99042.91;;;8.32;100.00
63715;BME280;49858;48.956;9.076;2023-12-20T10:13:34;99043.19;;;8.48;100.00
63715;BME280;49858;48.956;9.076;2023-12-20T10:16:07;99045.22;;;8.01;100.00
63715;BME280;49858;48.956;9.076;2023-12-20T10:18:36;99030.56;;;8.26;100.00
63715;BME280;49858;48.956;9.076;2023-12-20T10:21:07;99044.50;;;8.42;100.00
63715;BME280;49858;48.956;9.076;2023-12-20T10:23:37;99037.19;;;8.25;100.00
63715;BME280;49858;48.956;9.076;2023-12-20T10:26:06;99036.16;;;8.38;100.00
63715;BME280;49858;48.956;9.076;2023-12-20T10:28:34;99018.78;;;8.05;100.00
63715;BME280;49858;48.956;9.076;2023-12-20T10:31:04;99027.25;;;8.41;100.00
63715;BME280;49858;48.956;9.076;2023-12-20T10:33:32;99019.13;;;8.87;100.00
63715;BME280;49858;48.956;9.076;2023-12-20T10:36:01;99017.91;;;8.42;100.00
63715;BME280;49858;48.956;9.076;2023-12-20T10:38:31;99011.28;;;9.43;100.00
63715;BME280;49858;48.956;9.076;2023-12-20T10:41:01;99009.75;;;9.21;100.00
63715;BME280;49858;48.956;9.076;2023-12-20T10:43:32;99016.06;;;8.47;100.00
63715;BME280;49858;48.956;9.076;2023-12-20T10:46:03;99009.75;;;8.88;100.00
63715;BME280;49858;48.956;9.076;2023-12-20T10:48:31;99008.19;;;9.32;100.00
63715;BME280;49858;48.956;9.076;2023-12-20T10:51:01;99017.19;;;8.87;100.00
63715;BME280;49858;48.956;9.076;2023-12-20T10:53:31;99005.56;;;8.90;100.00
63715;BME280;49858;48.956;9.076;2023-12-20T10:56:00;99003.44;;;8.54;100.00
63715;BME280;49858;48.956;9.076;2023-12-20T10:58:32;99001.69;;;9.61;100.00
63715;BME280;49858;48.956;9.076;2023-12-20T11:01:01;99003.44;;;8.75;100.00
63715;BME280;49858;48.956;9.076;2023-12-20T11:03:32;98996.03;;;9.21;100.00
63715;BME280;49858;48.956;9.076;2023-12-20T11:06:08;99008.41;;;8.40;100.00
63715;BME280;49858;48.956;9.076;2023-12-20T11:08:46;98991.66;;;8.33;100.00
63715;BME280;49858;48.956;9.076;2023-12-20T11:11:20;99010.38;;;8.31;100.00
63715;BME280;49858;48.956;9.076;2023-12-20T11:13:56;99006.19;;;8.54;100.00
63715;BME280;49858;48.956;9.076;2023-12-20T11:16:26;98995.44;;;9.15;100.00
63715;BME280;49858;48.956;9.076;2023-12-20T11:19:07;99024.63;;;7.56;100.00
63715;BME280;49858;48.956;9.076;2023-12-20T11:21:35;98990.75;;;8.70;100.00
63715;BME280;49858;48.956;9.076;2023-12-20T11:24:05;98997.81;;;8.30;100.00
63715;BME280;49858;48.956;9.076;2023-12-20T11:26:33;99002.09;;;7.89;100.00
63715;BME280;49858;48.956;9.076;2023-12-20T11:29:29;98991.38;;;8.26;100.00
63715;BME280;49858;48.956;9.076;2023-12-20T11:31:57;98993.94;;;8.73;100.00
63715;BME280;49858;48.956;9.076;2023-12-20T11:34:27;99003.75;;;8.94;100.00
63715;BME280;49858;48.956;9.076;2023-12-20T11:36:59;98998.78;;;8.88;100.00
63715;BME280;49858;48.956;9.076;2023-12-20T11:39:30;99012.66;;;8.29;100.00
63715;BME280;49858;48.956;9.076;2023-12-20T11:42:04;99004.84;;;7.89;100.00
63715;BME280;49858;48.956;9.076;2023-12-20T11:44:33;99008.13;;;8.33;100.00
63715;BME280;49858;48.956;9.076;2023-12-20T11:47:03;98999.75;;;8.29;100.00
63715;BME280;49858;48.956;9.076;2023-12-20T11:49:31;98996.88;;;7.66;100.00
63715;BME280;49858;48.956;9.076;2023-12-20T11:51:59;99000.53;;;7.50;100.00
63715;BME280;49858;48.956;9.076;2023-12-20T11:54:27;98995.66;;;8.14;100.00
63715;BME280;49858;48.956;9.076;2023-12-20T11:56:56;98980.41;;;8.05;100.00
63715;BME280;49858;48.956;9.076;2023-12-20T11:59:24;98974.19;;;7.96;100.00
63715;BME280;49858;48.956;9.076;2023-12-20T12:01:52;98980.53;;;7.87;100.00
63715;BME280;49858;48.956;9.076;2023-12-20T12:04:23;98977.41;;;7.68;100.00
63715;BME280;49858;48.956;9.076;2023-12-20T12:06:51;98971.44;;;7.66;100.00
63715;BME280;49858;48.956;9.076;2023-12-20T12:09:19;98963.44;;;7.90;100.00
63715;BME280;49858;48.956;9.076;2023-12-20T12:11:47;98976.53;;;8.27;100.00
63715;BME280;49858;48.956;9.076;2023-12-20T12:14:16;98964.31;;;7.74;100.00
63715;BME280;49858;48.956;9.076;2023-12-20T12:16:45;98990.19;;;7.55;100.00
63715;BME280;49858;48.956;9.076;2023-12-20T12:19:20;98989.66;;;7.62;100.00
63715;BME280;49858;48.956;9.076;2023-12-20T12:21:49;98972.25;;;8.17;100.00
63715;BME280;49858;48.956;9.076;2023-12-20T12:24:20;98981.63;;;7.57;100.00
63715;BME280;49858;48.956;9.076;2023-12-20T12:26:51;98975.88;;;7.50;100.00
63715;BME280;49858;48.956;9.076;2023-12-20T12:29:21;98980.63;;;7.32;100.00
63715;BME280;49858;48.956;9.076;2023-12-20T12:31:53;98957.66;;;7.83;100.00
63715;BME280;49858;48.956;9.076;2023-12-20T12:34:21;98963.00;;;7.50;100.00
63715;BME280;49858;48.956;9.076;2023-12-20T12:36:49;98958.63;;;7.87;100.00
63715;BME280;49858;48.956;9.076;2023-12-20T12:39:18;98967.19;;;7.48;100.00
63715;BME280;49858;48.956;9.076;2023-12-20T12:41:46;98955.38;;;7.85;100.00
63715;BME280;49858;48.956;9.076;2023-12-20T12:44:14;98983.38;;;7.23;100.00
63715;BME280;49858;48.956;9.076;2023-12-20T12:46:46;98990.63;;;7.66;100.00
63715;BME280;49858;48.956;9.076;2023-12-20T12:49:16;98967.53;;;8.26;100.00
63715;BME280;49858;48.956;9.076;2023-12-20T12:51:44;98972.88;;;7.72;100.00
63715;BME280;49858;48.956;9.076;2023-12-20T12:54:12;98972.25;;;7.96;100.00
63715;BME280;49858;48.956;9.076;2023-12-20T12:56:43;98971.19;;;8.30;100.00
63715;BME280;49858;48.956;9.076;2023-12-20T12:59:11;98959.72;;;8.16;100.00
63715;BME280;49858;48.956;9.076;2023-12-20T13:01:39;98961.25;;;8.05;100.00
63715;BME280;49858;48.956;9.076;2023-12-20T13:04:09;98960.91;;;8.06;100.00
63715;BME280;49858;48.956;9.076;2023-12-20T13:06:38;98961.72;;;9.15;100.00
63715;BME280;49858;48.956;9.076;2023-12-20T13:09:08;98965.22;;;8.70;100.00